Oranjestad, Aruba
Current Conditions -  °F | °C
As of 2:00 AM on Friday 31 Oct 2014 (Local Time) from TNCA Reporting Station
Few Clouds Few Clouds  
Wind Chill: 82°   Ceiling: Unl
Heat Index: 89°   Visibility: 6mi
Dew Point: 75°   Wind: 10mph
Humidity: 79%   Direction: 90°E
Pressure: 29.77"   Gusts: NA
Location:  12.51°N, 70.03°W
Report Text: TNCA 310600Z 09009KT 9999 FEW018 28/24 Q1008 A2977 NOSIG
Loading
Personal Weather Stations






























Interactive Weather Map
Tropical Storm Tracking
New forecast layout! Learn more

10-Day Weather Forecast

Advertisements
Track Severe Weather on mobile